sensor_id;sensor_type;location;lat;lon;timestamp;temperature;humidity
72484;DHT22;74199;52.014;5.430;2024-02-14T00:00:19;20.10;47.60
72484;DHT22;74199;52.014;5.430;2024-02-14T00:02:47;20.10;47.60
72484;DHT22;74199;52.014;5.430;2024-02-14T00:05:16;20.10;47.60
72484;DHT22;74199;52.014;5.430;2024-02-14T00:07:43;20.10;47.60
72484;DHT22;74199;52.014;5.430;2024-02-14T00:10:10;20.10;47.50
72484;DHT22;74199;52.014;5.430;2024-02-14T00:12:38;20.10;47.50
72484;DHT22;74199;52.014;5.430;2024-02-14T00:15:06;20.10;47.60
72484;DHT22;74199;52.014;5.430;2024-02-14T00:17:34;20.10;47.60
72484;DHT22;74199;52.014;5.430;2024-02-14T00:20:02;20.20;47.60
72484;DHT22;74199;52.014;5.430;2024-02-14T00:22:31;20.10;47.60
72484;DHT22;74199;52.014;5.430;2024-02-14T00:24:58;20.20;47.60
72484;DHT22;74199;52.014;5.430;2024-02-14T00:27:25;20.20;47.60
72484;DHT22;74199;52.014;5.430;2024-02-14T00:29:53;20.20;47.60
72484;DHT22;74199;52.014;5.430;2024-02-14T00:32:22;20.20;47.60
72484;DHT22;74199;52.014;5.430;2024-02-14T00:34:49;20.20;47.60
72484;DHT22;74199;52.014;5.430;2024-02-14T00:37:18;20.20;47.60
72484;DHT22;74199;52.014;5.430;2024-02-14T00:39:46;20.20;47.60
72484;DHT22;74199;52.014;5.430;2024-02-14T00:42:18;20.20;47.70
72484;DHT22;74199;52.014;5.430;2024-02-14T00:44:45;20.20;47.70
72484;DHT22;74199;52.014;5.430;2024-02-14T00:47:12;20.20;47.60
72484;DHT22;74199;52.014;5.430;2024-02-14T00:49:40;20.20;47.70
72484;DHT22;74199;52.014;5.430;2024-02-14T00:52:07;20.20;47.70
72484;DHT22;74199;52.014;5.430;2024-02-14T00:54:34;20.20;47.70
72484;DHT22;74199;52.014;5.430;2024-02-14T00:57:01;20.20;47.70
72484;DHT22;74199;52.014;5.430;2024-02-14T00:59:28;20.30;47.70
72484;DHT22;74199;52.014;5.430;2024-02-14T01:01:55;20.30;47.70
72484;DHT22;74199;52.014;5.430;2024-02-14T01:04:22;20.30;47.80
72484;DHT22;74199;52.014;5.430;2024-02-14T01:06:49;20.30;47.70
72484;DHT22;74199;52.014;5.430;2024-02-14T01:09:19;20.30;47.70
72484;DHT22;74199;52.014;5.430;2024-02-14T01:11:46;20.30;47.80
72484;DHT22;74199;52.014;5.430;2024-02-14T01:14:13;20.30;47.80
72484;DHT22;74199;52.014;5.430;2024-02-14T01:16:46;20.30;47.80
72484;DHT22;74199;52.014;5.430;2024-02-14T01:19:14;20.30;47.80
72484;DHT22;74199;52.014;5.430;2024-02-14T01:21:41;20.30;47.90
72484;DHT22;74199;52.014;5.430;2024-02-14T01:24:08;20.30;47.90
72484;DHT22;74199;52.014;5.430;2024-02-14T01:26:36;20.30;47.80
72484;DHT22;74199;52.014;5.430;2024-02-14T01:29:03;20.30;47.80
72484;DHT22;74199;52.014;5.430;2024-02-14T01:31:33;20.30;47.80
72484;DHT22;74199;52.014;5.430;2024-02-14T01:34:01;20.30;47.90
72484;DHT22;74199;52.014;5.430;2024-02-14T01:36:31;20.30;47.90
72484;DHT22;74199;52.014;5.430;2024-02-14T01:38:58;20.30;47.90
72484;DHT22;74199;52.014;5.430;2024-02-14T01:41:27;20.30;47.90
72484;DHT22;74199;52.014;5.430;2024-02-14T01:43:54;20.30;47.90
72484;DHT22;74199;52.014;5.430;2024-02-14T01:46:21;20.30;47.90
72484;DHT22;74199;52.014;5.430;2024-02-14T01:48:48;20.40;48.00
72484;DHT22;74199;52.014;5.430;2024-02-14T01:51:18;20.30;48.00
72484;DHT22;74199;52.014;5.430;2024-02-14T01:53:46;20.30;48.00
72484;DHT22;74199;52.014;5.430;2024-02-14T01:56:13;20.30;48.00
72484;DHT22;74199;52.014;5.430;2024-02-14T01:58:41;20.30;48.00
72484;DHT22;74199;52.014;5.430;2024-02-14T02:01:12;20.40;47.90
72484;DHT22;74199;52.014;5.430;2024-02-14T02:03:40;20.30;48.00
72484;DHT22;74199;52.014;5.430;2024-02-14T02:06:07;20.30;48.00
72484;DHT22;74199;52.014;5.430;2024-02-14T02:08:34;20.40;48.00
72484;DHT22;74199;52.014;5.430;2024-02-14T02:11:02;20.40;48.10
72484;DHT22;74199;52.014;5.430;2024-02-14T02:13:29;20.40;48.10
72484;DHT22;74199;52.014;5.430;2024-02-14T02:15:56;20.30;48.10
72484;DHT22;74199;52.014;5.430;2024-02-14T02:18:23;20.40;48.10
72484;DHT22;74199;52.014;5.430;2024-02-14T02:20:52;20.40;48.20
72484;DHT22;74199;52.014;5.430;2024-02-14T02:23:19;20.40;48.10
72484;DHT22;74199;52.014;5.430;2024-02-14T02:25:47;20.40;48.10
72484;DHT22;74199;52.014;5.430;2024-02-14T02:28:14;20.40;48.20
72484;DHT22;74199;52.014;5.430;2024-02-14T02:30:41;20.40;48.10
72484;DHT22;74199;52.014;5.430;2024-02-14T02:33:08;20.40;48.10
72484;DHT22;74199;52.014;5.430;2024-02-14T02:35:35;20.40;48.10
72484;DHT22;74199;52.014;5.430;2024-02-14T02:38:03;20.40;48.10
72484;DHT22;74199;52.014;5.430;2024-02-14T02:40:30;20.40;48.20
72484;DHT22;74199;52.014;5.430;2024-02-14T02:42:57;20.40;48.20
72484;DHT22;74199;52.014;5.430;2024-02-14T02:45:26;20.40;48.20
72484;DHT22;74199;52.014;5.430;2024-02-14T02:47:53;20.40;48.30
72484;DHT22;74199;52.014;5.430;2024-02-14T02:50:20;20.40;48.30
72484;DHT22;74199;52.014;5.430;2024-02-14T02:52:48;20.40;48.20
72484;DHT22;74199;52.014;5.430;2024-02-14T02:55:15;20.40;48.30
72484;DHT22;74199;52.014;5.430;2024-02-14T02:57:45;20.40;48.30
72484;DHT22;74199;52.014;5.430;2024-02-14T03:00:13;20.40;48.30
72484;DHT22;74199;52.014;5.430;2024-02-14T03:02:41;20.40;48.30
72484;DHT22;74199;52.014;5.430;2024-02-14T03:05:11;20.40;48.30
72484;DHT22;74199;52.014;5.430;2024-02-14T03:07:45;20.40;48.30
72484;DHT22;74199;52.014;5.430;2024-02-14T03:10:14;20.40;48.40
72484;DHT22;74199;52.014;5.430;2024-02-14T03:12:41;20.40;48.40
72484;DHT22;74199;52.014;5.430;2024-02-14T03:15:08;20.40;48.40
72484;DHT22;74199;52.014;5.430;2024-02-14T03:17:37;20.40;48.40
72484;DHT22;74199;52.014;5.430;2024-02-14T03:20:05;20.40;48.40
72484;DHT22;74199;52.014;5.430;2024-02-14T03:22:44;20.40;48.40
72484;DHT22;74199;52.014;5.430;2024-02-14T03:25:21;20.40;48.40
72484;DHT22;74199;52.014;5.430;2024-02-14T03:27:50;20.40;48.40
72484;DHT22;74199;52.014;5.430;2024-02-14T03:30:20;20.40;48.50
72484;DHT22;74199;52.014;5.430;2024-02-14T03:32:49;20.40;48.40
72484;DHT22;74199;52.014;5.430;2024-02-14T03:35:16;20.40;48.50
72484;DHT22;74199;52.014;5.430;2024-02-14T03:37:45;20.40;48.50
72484;DHT22;74199;52.014;5.430;2024-02-14T03:40:15;20.40;48.60
72484;DHT22;74199;52.014;5.430;2024-02-14T03:42:42;20.40;48.50
72484;DHT22;74199;52.014;5.430;2024-02-14T03:45:09;20.40;48.60
72484;DHT22;74199;52.014;5.430;2024-02-14T03:47:37;20.40;48.50
72484;DHT22;74199;52.014;5.430;2024-02-14T03:50:08;20.40;48.60
72484;DHT22;74199;52.014;5.430;2024-02-14T03:52:37;20.40;48.60
72484;DHT22;74199;52.014;5.430;2024-02-14T03:55:05;20.40;48.60
72484;DHT22;74199;52.014;5.430;2024-02-14T03:57:32;20.40;48.70
72484;DHT22;74199;52.014;5.430;2024-02-14T04:00:02;20.40;48.70
72484;DHT22;74199;52.014;5.430;2024-02-14T04:02:37;20.40;48.70
72484;DHT22;74199;52.014;5.430;2024-02-14T04:05:07;20.40;48.70
72484;DHT22;74199;52.014;5.430;2024-02-14T04:07:34;20.40;48.70
72484;DHT22;74199;52.014;5.430;2024-02-14T04:10:03;20.40;48.70
72484;DHT22;74199;52.014;5.430;2024-02-14T04:12:30;20.40;48.80
72484;DHT22;74199;52.014;5.430;2024-02-14T04:14:57;20.40;48.70
72484;DHT22;74199;52.014;5.430;2024-02-14T04:17:24;20.40;48.80
72484;DHT22;74199;52.014;5.430;2024-02-14T04:19:51;20.40;48.70
72484;DHT22;74199;52.014;5.430;2024-02-14T04:22:18;20.40;48.80
72484;DHT22;74199;52.014;5.430;2024-02-14T04:24:46;20.40;48.80
72484;DHT22;74199;52.014;5.430;2024-02-14T04:27:13;20.40;48.90
72484;DHT22;74199;52.014;5.430;2024-02-14T04:29:44;20.40;48.90
72484;DHT22;74199;52.014;5.430;2024-02-14T04:32:13;20.40;48.80
72484;DHT22;74199;52.014;5.430;2024-02-14T04:34:40;20.40;48.80
72484;DHT22;74199;52.014;5.430;2024-02-14T04:37:09;20.40;48.80
72484;DHT22;74199;52.014;5.430;2024-02-14T04:39:45;20.40;48.90
72484;DHT22;74199;52.014;5.430;2024-02-14T04:42:12;20.40;49.00
72484;DHT22;74199;52.014;5.430;2024-02-14T04:44:39;20.40;48.90
72484;DHT22;74199;52.014;5.430;2024-02-14T04:47:06;20.40;48.90
72484;DHT22;74199;52.014;5.430;2024-02-14T04:49:36;20.40;49.00
72484;DHT22;74199;52.014;5.430;2024-02-14T04:52:04;20.40;49.00
72484;DHT22;74199;52.014;5.430;2024-02-14T04:54:31;20.40;49.00
72484;DHT22;74199;52.014;5.430;2024-02-14T04:56:58;20.40;49.00
72484;DHT22;74199;52.014;5.430;2024-02-14T04:59:29;20.40;49.00
72484;DHT22;74199;52.014;5.430;2024-02-14T05:01:56;20.40;49.00
72484;DHT22;74199;52.014;5.430;2024-02-14T05:04:23;20.40;49.00
72484;DHT22;74199;52.014;5.430;2024-02-14T05:06:51;20.30;49.20
72484;DHT22;74199;52.014;5.430;2024-02-14T05:09:26;20.40;49.20
72484;DHT22;74199;52.014;5.430;2024-02-14T05:11:56;20.30;49.20
72484;DHT22;74199;52.014;5.430;2024-02-14T05:14:25;20.40;49.20
72484;DHT22;74199;52.014;5.430;2024-02-14T05:16:52;20.40;49.30
72484;DHT22;74199;52.014;5.430;2024-02-14T05:19:19;20.40;49.20
72484;DHT22;74199;52.014;5.430;2024-02-14T05:21:49;20.40;49.20
72484;DHT22;74199;52.014;5.430;2024-02-14T05:24:16;20.40;49.20
72484;DHT22;74199;52.014;5.430;2024-02-14T05:26:43;20.40;49.30
72484;DHT22;74199;52.014;5.430;2024-02-14T05:29:10;20.40;49.20
72484;DHT22;74199;52.014;5.430;2024-02-14T05:31:44;20.40;49.20
72484;DHT22;74199;52.014;5.430;2024-02-14T05:34:12;20.40;49.20
72484;DHT22;74199;52.014;5.430;2024-02-14T05:36:39;20.40;49.20
72484;DHT22;74199;52.014;5.430;2024-02-14T05:39:06;20.40;49.20
72484;DHT22;74199;52.014;5.430;2024-02-14T05:41:34;20.40;49.20
72484;DHT22;74199;52.014;5.430;2024-02-14T05:44:02;20.40;49.20
72484;DHT22;74199;52.014;5.430;2024-02-14T05:46:29;20.40;49.30
72484;DHT22;74199;52.014;5.430;2024-02-14T05:48:56;20.40;49.30
72484;DHT22;74199;52.014;5.430;2024-02-14T05:51:24;20.40;49.30
72484;DHT22;74199;52.014;5.430;2024-02-14T05:53:51;20.40;49.30
72484;DHT22;74199;52.014;5.430;2024-02-14T05:56:18;20.40;49.30
72484;DHT22;74199;52.014;5.430;2024-02-14T05:58:45;20.40;49.30
72484;DHT22;74199;52.014;5.430;2024-02-14T06:01:12;20.40;49.30
72484;DHT22;74199;52.014;5.430;2024-02-14T06:03:41;20.40;49.40
72484;DHT22;74199;52.014;5.430;2024-02-14T06:06:08;20.40;49.30
72484;DHT22;74199;52.014;5.430;2024-02-14T06:08:35;20.40;49.30
72484;DHT22;74199;52.014;5.430;2024-02-14T06:11:03;20.40;49.40
72484;DHT22;74199;52.014;5.430;2024-02-14T06:13:30;20.40;49.40
72484;DHT22;74199;52.014;5.430;2024-02-14T06:15:57;20.40;49.30
72484;DHT22;74199;52.014;5.430;2024-02-14T06:18:23;20.40;49.40
72484;DHT22;74199;52.014;5.430;2024-02-14T06:20:51;20.40;49.40
72484;DHT22;74199;52.014;5.430;2024-02-14T06:23:17;20.40;49.40
72484;DHT22;74199;52.014;5.430;2024-02-14T06:25:45;20.40;49.30
72484;DHT22;74199;52.014;5.430;2024-02-14T06:28:12;20.40;49.40
72484;DHT22;74199;52.014;5.430;2024-02-14T06:30:38;20.40;49.40
72484;DHT22;74199;52.014;5.430;2024-02-14T06:33:05;20.40;49.50
72484;DHT22;74199;52.014;5.430;2024-02-14T06:35:33;20.40;49.40
72484;DHT22;74199;52.014;5.430;2024-02-14T06:38:02;20.40;49.40
72484;DHT22;74199;52.014;5.430;2024-02-14T06:40:31;20.40;49.40
72484;DHT22;74199;52.014;5.430;2024-02-14T06:42:58;20.40;49.50
72484;DHT22;74199;52.014;5.430;2024-02-14T06:45:27;20.40;49.50
72484;DHT22;74199;52.014;5.430;2024-02-14T06:47:55;20.40;49.40
72484;DHT22;74199;52.014;5.430;2024-02-14T06:50:22;20.40;49.50
72484;DHT22;74199;52.014;5.430;2024-02-14T06:52:54;20.40;49.50
72484;DHT22;74199;52.014;5.430;2024-02-14T06:55:28;20.40;49.40
72484;DHT22;74199;52.014;5.430;2024-02-14T06:58:00;20.40;49.40
72484;DHT22;74199;52.014;5.430;2024-02-14T07:00:27;20.40;49.40
72484;DHT22;74199;52.014;5.430;2024-02-14T07:02:57;20.40;49.50
72484;DHT22;74199;52.014;5.430;2024-02-14T07:05:24;20.40;49.50
72484;DHT22;74199;52.014;5.430;2024-02-14T07:07:52;20.40;49.50
72484;DHT22;74199;52.014;5.430;2024-02-14T07:10:19;20.40;49.50
72484;DHT22;74199;52.014;5.430;2024-02-14T07:12:46;20.40;49.50
72484;DHT22;74199;52.014;5.430;2024-02-14T07:15:13;20.40;49.50
72484;DHT22;74199;52.014;5.430;2024-02-14T07:17:42;20.40;49.50
72484;DHT22;74199;52.014;5.430;2024-02-14T07:20:10;20.40;49.50
72484;DHT22;74199;52.014;5.430;2024-02-14T07:22:37;20.40;49.50
72484;DHT22;74199;52.014;5.430;2024-02-14T07:25:04;20.40;49.70
72484;DHT22;74199;52.014;5.430;2024-02-14T07:27:32;20.40;49.80
72484;DHT22;74199;52.014;5.430;2024-02-14T07:29:59;20.40;49.90
72484;DHT22;74199;52.014;5.430;2024-02-14T07:32:26;20.40;49.90
72484;DHT22;74199;52.014;5.430;2024-02-14T07:34:54;20.30;49.80
72484;DHT22;74199;52.014;5.430;2024-02-14T07:37:21;20.30;49.70
72484;DHT22;74199;52.014;5.430;2024-02-14T07:39:48;20.30;49.70
72484;DHT22;74199;52.014;5.430;2024-02-14T07:42:15;20.30;49.80
72484;DHT22;74199;52.014;5.430;2024-02-14T07:44:44;20.40;49.70
72484;DHT22;74199;52.014;5.430;2024-02-14T07:47:11;20.30;49.60
72484;DHT22;74199;52.014;5.430;2024-02-14T07:49:39;20.30;49.70
72484;DHT22;74199;52.014;5.430;2024-02-14T07:52:06;20.30;49.80
72484;DHT22;74199;52.014;5.430;2024-02-14T07:54:33;20.30;49.80
72484;DHT22;74199;52.014;5.430;2024-02-14T07:57:00;20.40;49.90
72484;DHT22;74199;52.014;5.430;2024-02-14T07:59:27;20.40;49.90
72484;DHT22;74199;52.014;5.430;2024-02-14T08:01:57;20.40;50.00
72484;DHT22;74199;52.014;5.430;2024-02-14T08:04:24;20.40;50.00
72484;DHT22;74199;52.014;5.430;2024-02-14T08:06:51;20.40;50.00
72484;DHT22;74199;52.014;5.430;2024-02-14T08:09:19;20.40;50.00
72484;DHT22;74199;52.014;5.430;2024-02-14T08:11:46;20.40;50.10
72484;DHT22;74199;52.014;5.430;2024-02-14T08:14:13;20.40;50.10
72484;DHT22;74199;52.014;5.430;2024-02-14T08:16:40;20.40;50.10
72484;DHT22;74199;52.014;5.430;2024-02-14T08:19:07;20.40;50.20
72484;DHT22;74199;52.014;5.430;2024-02-14T08:21:34;20.40;50.20
72484;DHT22;74199;52.014;5.430;2024-02-14T08:24:01;20.40;50.20
72484;DHT22;74199;52.014;5.430;2024-02-14T08:26:28;20.40;50.20
72484;DHT22;74199;52.014;5.430;2024-02-14T08:28:55;20.40;50.20
72484;DHT22;74199;52.014;5.430;2024-02-14T08:31:23;20.40;50.20
72484;DHT22;74199;52.014;5.430;2024-02-14T08:33:50;20.40;50.20
72484;DHT22;74199;52.014;5.430;2024-02-14T08:36:17;20.40;50.20
72484;DHT22;74199;52.014;5.430;2024-02-14T08:38:46;20.40;50.20
72484;DHT22;74199;52.014;5.430;2024-02-14T08:41:14;20.40;50.20
72484;DHT22;74199;52.014;5.430;2024-02-14T08:43:41;20.40;50.30
72484;DHT22;74199;52.014;5.430;2024-02-14T08:46:13;20.40;50.30
72484;DHT22;74199;52.014;5.430;2024-02-14T08:48:40;20.40;50.30
72484;DHT22;74199;52.014;5.430;2024-02-14T08:51:13;20.40;50.20
72484;DHT22;74199;52.014;5.430;2024-02-14T08:53:40;20.40;50.30
72484;DHT22;74199;52.014;5.430;2024-02-14T08:56:09;20.40;50.30
72484;DHT22;74199;52.014;5.430;2024-02-14T08:58:36;20.40;50.40
72484;DHT22;74199;52.014;5.430;2024-02-14T09:01:03;20.40;50.30
72484;DHT22;74199;52.014;5.430;2024-02-14T09:03:41;20.40;50.30
72484;DHT22;74199;52.014;5.430;2024-02-14T09:06:10;20.40;50.30
72484;DHT22;74199;52.014;5.430;2024-02-14T09:08:37;20.40;50.30
72484;DHT22;74199;52.014;5.430;2024-02-14T09:11:04;20.40;50.40
72484;DHT22;74199;52.014;5.430;2024-02-14T09:13:31;20.40;50.40
72484;DHT22;74199;52.014;5.430;2024-02-14T09:15:58;20.40;50.40
72484;DHT22;74199;52.014;5.430;2024-02-14T09:18:26;20.40;50.40
72484;DHT22;74199;52.014;5.430;2024-02-14T09:20:53;20.40;50.30
72484;DHT22;74199;52.014;5.430;2024-02-14T09:23:21;20.40;50.40
72484;DHT22;74199;52.014;5.430;2024-02-14T09:25:49;20.40;50.30
72484;DHT22;74199;52.014;5.430;2024-02-14T09:28:16;20.40;50.30
72484;DHT22;74199;52.014;5.430;2024-02-14T09:30:43;20.30;50.30
72484;DHT22;74199;52.014;5.430;2024-02-14T09:33:11;20.40;50.30
72484;DHT22;74199;52.014;5.430;2024-02-14T09:35:38;20.40;50.40
72484;DHT22;74199;52.014;5.430;2024-02-14T09:38:11;20.30;50.50
72484;DHT22;74199;52.014;5.430;2024-02-14T09:40:41;20.30;50.40
72484;DHT22;74199;52.014;5.430;2024-02-14T09:43:31;20.30;50.40
72484;DHT22;74199;52.014;5.430;2024-02-14T09:46:01;20.40;50.40
72484;DHT22;74199;52.014;5.430;2024-02-14T09:48:30;20.30;50.40
72484;DHT22;74199;52.014;5.430;2024-02-14T09:50:57;20.30;50.40
72484;DHT22;74199;52.014;5.430;2024-02-14T09:53:26;20.30;50.40
72484;DHT22;74199;52.014;5.430;2024-02-14T09:55:55;20.30;50.40
72484;DHT22;74199;52.014;5.430;2024-02-14T09:58:23;20.30;50.50
72484;DHT22;74199;52.014;5.430;2024-02-14T10:00:59;20.30;50.60
72484;DHT22;74199;52.014;5.430;2024-02-14T10:03:26;20.40;50.50
72484;DHT22;74199;52.014;5.430;2024-02-14T10:05:54;20.30;50.50
72484;DHT22;74199;52.014;5.430;2024-02-14T10:08:22;20.30;50.50
72484;DHT22;74199;52.014;5.430;2024-02-14T10:10:49;20.30;50.60
72484;DHT22;74199;52.014;5.430;2024-02-14T10:13:19;20.30;50.60
72484;DHT22;74199;52.014;5.430;2024-02-14T10:15:46;20.30;50.60
72484;DHT22;74199;52.014;5.430;2024-02-14T10:18:14;20.30;50.70
72484;DHT22;74199;52.014;5.430;2024-02-14T10:20:55;20.30;50.80
72484;DHT22;74199;52.014;5.430;2024-02-14T10:23:23;20.30;50.90
72484;DHT22;74199;52.014;5.430;2024-02-14T10:25:52;20.30;50.90
72484;DHT22;74199;52.014;5.430;2024-02-14T10:28:21;20.30;51.00
72484;DHT22;74199;52.014;5.430;2024-02-14T10:30:58;20.30;51.00
72484;DHT22;74199;52.014;5.430;2024-02-14T10:33:28;20.30;51.00
72484;DHT22;74199;52.014;5.430;2024-02-14T10:35:57;20.30;51.00
72484;DHT22;74199;52.014;5.430;2024-02-14T10:38:31;20.40;51.00
72484;DHT22;74199;52.014;5.430;2024-02-14T10:41:01;20.30;51.10
72484;DHT22;74199;52.014;5.430;2024-02-14T10:43:29;20.30;51.00
72484;DHT22;74199;52.014;5.430;2024-02-14T10:45:59;20.30;50.90
72484;DHT22;74199;52.014;5.430;2024-02-14T10:48:28;20.30;50.90
72484;DHT22;74199;52.014;5.430;2024-02-14T10:51:02;20.30;50.90
72484;DHT22;74199;52.014;5.430;2024-02-14T10:53:32;20.30;50.90
72484;DHT22;74199;52.014;5.430;2024-02-14T10:56:03;20.30;50.90
72484;DHT22;74199;52.014;5.430;2024-02-14T10:58:30;20.30;50.90
72484;DHT22;74199;52.014;5.430;2024-02-14T11:00:59;20.30;50.90
72484;DHT22;74199;52.014;5.430;2024-02-14T11:03:27;20.30;50.90
72484;DHT22;74199;52.014;5.430;2024-02-14T11:06:01;20.30;51.00
72484;DHT22;74199;52.014;5.430;2024-02-14T11:08:31;20.30;51.00
72484;DHT22;74199;52.014;5.430;2024-02-14T11:10:59;20.30;50.90
72484;DHT22;74199;52.014;5.430;2024-02-14T11:13:28;20.30;51.00
72484;DHT22;74199;52.014;5.430;2024-02-14T11:16:00;20.30;51.00
72484;DHT22;74199;52.014;5.430;2024-02-14T11:18:28;20.30;51.00
72484;DHT22;74199;52.014;5.430;2024-02-14T11:21:03;20.30;51.00
72484;DHT22;74199;52.014;5.430;2024-02-14T11:23:31;20.30;51.00
72484;DHT22;74199;52.014;5.430;2024-02-14T11:26:03;20.30;51.00
72484;DHT22;74199;52.014;5.430;2024-02-14T11:28:31;20.30;51.10
72484;DHT22;74199;52.014;5.430;2024-02-14T11:31:01;20.30;51.10
72484;DHT22;74199;52.014;5.430;2024-02-14T11:33:31;20.30;51.00
72484;DHT22;74199;52.014;5.430;2024-02-14T11:36:07;20.30;51.10
72484;DHT22;74199;52.014;5.430;2024-02-14T11:38:36;20.30;51.10
72484;DHT22;74199;52.014;5.430;2024-02-14T11:41:03;20.30;51.10
72484;DHT22;74199;52.014;5.430;2024-02-14T11:43:33;20.30;51.20
72484;DHT22;74199;52.014;5.430;2024-02-14T11:46:01;20.30;51.20
72484;DHT22;74199;52.014;5.430;2024-02-14T11:48:31;20.30;51.20
72484;DHT22;74199;52.014;5.430;2024-02-14T11:50:59;20.30;51.20
72484;DHT22;74199;52.014;5.430;2024-02-14T11:53:26;20.30;51.20
72484;DHT22;74199;52.014;5.430;2024-02-14T11:55:55;20.30;51.20
72484;DHT22;74199;52.014;5.430;2024-02-14T11:58:23;20.30;51.20
72484;DHT22;74199;52.014;5.430;2024-02-14T12:00:50;20.30;51.40
72484;DHT22;74199;52.014;5.430;2024-02-14T12:03:24;20.30;51.40
72484;DHT22;74199;52.014;5.430;2024-02-14T12:05:53;20.30;51.40
72484;DHT22;74199;52.014;5.430;2024-02-14T12:08:21;20.30;51.40
72484;DHT22;74199;52.014;5.430;2024-02-14T12:10:49;20.30;51.40
72484;DHT22;74199;52.014;5.430;2024-02-14T12:13:21;20.30;51.40
72484;DHT22;74199;52.014;5.430;2024-02-14T12:15:50;20.30;51.40
72484;DHT22;74199;52.014;5.430;2024-02-14T12:18:19;20.30;51.40
72484;DHT22;74199;52.014;5.430;2024-02-14T12:20:47;20.30;51.40
72484;DHT22;74199;52.014;5.430;2024-02-14T12:23:22;20.30;51.40
72484;DHT22;74199;52.014;5.430;2024-02-14T12:25:50;20.30;51.40
72484;DHT22;74199;52.014;5.430;2024-02-14T12:28:18;20.30;51.50
72484;DHT22;74199;52.014;5.430;2024-02-14T12:30:47;20.30;51.40
72484;DHT22;74199;52.014;5.430;2024-02-14T12:33:16;20.30;51.40
72484;DHT22;74199;52.014;5.430;2024-02-14T12:35:47;20.30;51.40
72484;DHT22;74199;52.014;5.430;2024-02-14T12:38:17;20.30;51.50
72484;DHT22;74199;52.014;5.430;2024-02-14T12:40:44;20.30;51.50
72484;DHT22;74199;52.014;5.430;2024-02-14T12:43:13;20.30;51.60
72484;DHT22;74199;52.014;5.430;2024-02-14T12:45:41;20.30;51.60
72484;DHT22;74199;52.014;5.430;2024-02-14T12:48:09;20.30;51.60
72484;DHT22;74199;52.014;5.430;2024-02-14T12:50:37;20.30;51.70
72484;DHT22;74199;52.014;5.430;2024-02-14T12:53:11;20.30;51.70
72484;DHT22;74199;52.014;5.430;2024-02-14T12:55:38;20.30;51.70
72484;DHT22;74199;52.014;5.430;2024-02-14T12:58:05;20.30;51.70
72484;DHT22;74199;52.014;5.430;2024-02-14T13:00:32;20.30;51.70
72484;DHT22;74199;52.014;5.430;2024-02-14T13:02:59;20.30;51.70
72484;DHT22;74199;52.014;5.430;2024-02-14T13:05:28;20.30;51.70
72484;DHT22;74199;52.014;5.430;2024-02-14T13:07:55;20.30;51.70
72484;DHT22;74199;52.014;5.430;2024-02-14T13:10:22;20.30;51.70
72484;DHT22;74199;52.014;5.430;2024-02-14T13:12:49;20.30;51.70
72484;DHT22;74199;52.014;5.430;2024-02-14T13:15:17;20.30;51.60
72484;DHT22;74199;52.014;5.430;2024-02-14T13:17:44;20.30;51.70
72484;DHT22;74199;52.014;5.430;2024-02-14T13:20:12;20.30;51.70
72484;DHT22;74199;52.014;5.430;2024-02-14T13:22:42;20.30;51.70
72484;DHT22;74199;52.014;5.430;2024-02-14T13:25:09;20.30;51.70
72484;DHT22;74199;52.014;5.430;2024-02-14T13:27:36;20.30;51.80
72484;DHT22;74199;52.014;5.430;2024-02-14T13:30:04;20.30;51.90
72484;DHT22;74199;52.014;5.430;2024-02-14T13:32:31;20.30;51.90
72484;DHT22;74199;52.014;5.430;2024-02-14T13:34:58;20.30;51.90
72484;DHT22;74199;52.014;5.430;2024-02-14T13:37:25;20.30;51.90
72484;DHT22;74199;52.014;5.430;2024-02-14T13:39:52;20.30;51.90
72484;DHT22;74199;52.014;5.430;2024-02-14T13:42:19;20.30;51.90
72484;DHT22;74199;52.014;5.430;2024-02-14T13:44:46;20.30;51.90
72484;DHT22;74199;52.014;5.430;2024-02-14T13:47:17;20.30;52.00
72484;DHT22;74199;52.014;5.430;2024-02-14T13:49:45;20.30;51.90
72484;DHT22;74199;52.014;5.430;2024-02-14T13:52:12;20.30;51.90
72484;DHT22;74199;52.014;5.430;2024-02-14T13:54:39;20.30;51.90
72484;DHT22;74199;52.014;5.430;2024-02-14T13:57:06;20.30;51.90
72484;DHT22;74199;52.014;5.430;2024-02-14T13:59:33;20.30;52.00
72484;DHT22;74199;52.014;5.430;2024-02-14T14:02:00;20.30;51.90
72484;DHT22;74199;52.014;5.430;2024-02-14T14:04:27;20.30;52.00
72484;DHT22;74199;52.014;5.430;2024-02-14T14:06:54;20.30;52.10
72484;DHT22;74199;52.014;5.430;2024-02-14T14:09:22;20.30;52.20
72484;DHT22;74199;52.014;5.430;2024-02-14T14:11:49;20.30;52.20
72484;DHT22;74199;52.014;5.430;2024-02-14T14:14:17;20.30;52.20
72484;DHT22;74199;52.014;5.430;2024-02-14T14:16:46;20.30;52.20
72484;DHT22;74199;52.014;5.430;2024-02-14T14:19:13;20.30;52.30
72484;DHT22;74199;52.014;5.430;2024-02-14T14:21:40;20.30;52.30
72484;DHT22;74199;52.014;5.430;2024-02-14T14:24:07;20.30;52.30
72484;DHT22;74199;52.014;5.430;2024-02-14T14:26:34;20.30;52.40
72484;DHT22;74199;52.014;5.430;2024-02-14T14:29:02;20.30;52.50
72484;DHT22;74199;52.014;5.430;2024-02-14T14:31:28;20.40;52.50
72484;DHT22;74199;52.014;5.430;2024-02-14T14:33:56;20.40;52.60
72484;DHT22;74199;52.014;5.430;2024-02-14T14:36:24;20.30;52.70
72484;DHT22;74199;52.014;5.430;2024-02-14T14:38:52;20.40;52.60
72484;DHT22;74199;52.014;5.430;2024-02-14T14:41:21;20.40;52.70
72484;DHT22;74199;52.014;5.430;2024-02-14T14:43:48;20.40;52.70
72484;DHT22;74199;52.014;5.430;2024-02-14T14:46:16;20.40;52.70
72484;DHT22;74199;52.014;5.430;2024-02-14T14:48:45;20.40;52.70
72484;DHT22;74199;52.014;5.430;2024-02-14T14:51:13;20.40;52.70
72484;DHT22;74199;52.014;5.430;2024-02-14T14:53:40;20.40;52.80
72484;DHT22;74199;52.014;5.430;2024-02-14T14:56:07;20.40;52.80
72484;DHT22;74199;52.014;5.430;2024-02-14T14:58:34;20.40;52.80
72484;DHT22;74199;52.014;5.430;2024-02-14T15:01:02;20.40;52.80
72484;DHT22;74199;52.014;5.430;2024-02-14T15:03:32;20.40;52.80
72484;DHT22;74199;52.014;5.430;2024-02-14T15:05:59;20.40;52.80
72484;DHT22;74199;52.014;5.430;2024-02-14T15:08:27;20.40;52.90
72484;DHT22;74199;52.014;5.430;2024-02-14T15:10:55;20.40;53.00
72484;DHT22;74199;52.014;5.430;2024-02-14T15:13:23;20.40;53.00
72484;DHT22;74199;52.014;5.430;2024-02-14T15:15:51;20.40;53.00
72484;DHT22;74199;52.014;5.430;2024-02-14T15:18:19;20.40;53.00
72484;DHT22;74199;52.014;5.430;2024-02-14T15:20:46;20.40;53.00
72484;DHT22;74199;52.014;5.430;2024-02-14T15:23:13;20.40;53.00
72484;DHT22;74199;52.014;5.430;2024-02-14T15:25:40;20.40;53.00
72484;DHT22;74199;52.014;5.430;2024-02-14T15:28:10;20.40;52.90
72484;DHT22;74199;52.014;5.430;2024-02-14T15:30:48;20.40;53.00
72484;DHT22;74199;52.014;5.430;2024-02-14T15:33:33;20.40;53.00
72484;DHT22;74199;52.014;5.430;2024-02-14T15:36:01;20.40;53.00